Terminal Aerodrome Forecast
Issued by NWS

Home | Current Version | Previous Version | Text Only | Print | Product List | Glossary On
Versions: 1 2 3 4 5 6 7 8 9 10 11 12 13 14 15 16 17 18
000
FTUS46 KOTX 211129 RRA
TAFPUW
TAF
KPUW 211129Z 2111/2212 29003KT P6SM SCT015 BKN050
     FM212100 27006KT P6SM VCSH BKN030 OVC050
     FM220200 33004KT P6SM SCT070
     FM220600 VRB02KT P6SM SCT100 BKN200=

USA.gov is the U.S. government's official web portal to all federal, state and local government web resources and services.